Time;durP1;ratioP1;P1;durP2;ratioP2;P2;SDS_P1;SDS_P2;PMS_P1;PMS_P2;Temp;Humidity;BMP_temperature;BMP_pressure;BME280_temperature;BME280_humidity;BME280_pressure;Samples;Min_cycle;Max_cycle;Signal;HPM_P1;HPM_P2
2022/01/05 00:00:11;;;;;;;1.10;1.10;;;5.00;99.90;;;;;;476481;249;27468;-70
2022/01/05 00:02:12;;;;;;;1.25;1.25;;;5.00;99.90;;;;;;476522;249;27437;-69
2022/01/05 00:04:13;;;;;;;2.05;1.20;;;5.10;99.90;;;;;;476533;249;27408;-70
2022/01/05 00:06:15;;;;;;;1.25;1.20;;;5.10;99.90;;;;;;476498;249;27448;-69
2022/01/05 00:08:18;;;;;;;1.35;1.25;;;5.00;99.90;;;;;;476514;249;27432;-69
2022/01/05 00:10:17;;;;;;;1.65;1.20;;;5.10;99.90;;;;;;476453;249;27467;-70
2022/01/05 00:12:18;;;;;;;1.17;1.15;;;5.10;99.90;;;;;;476534;249;27449;-70
2022/01/05 00:14:20;;;;;;;1.23;1.12;;;5.10;99.90;;;;;;476532;249;27865;-69
2022/01/05 00:16:21;;;;;;;1.08;1.08;;;5.10;99.90;;;;;;476500;249;27875;-69
2022/01/05 00:18:22;;;;;;;1.00;1.00;;;5.10;99.90;;;;;;476533;249;28021;-70
2022/01/05 00:20:25;;;;;;;1.30;1.30;;;5.10;99.90;;;;;;476524;249;27469;-69
2022/01/05 00:22:26;;;;;;;1.12;1.10;;;5.10;99.90;;;;;;476472;249;27401;-69
2022/01/05 00:24:27;;;;;;;1.35;1.15;;;5.10;99.90;;;;;;476538;249;27492;-70
2022/01/05 00:26:29;;;;;;;1.50;1.40;;;5.10;99.90;;;;;;476497;249;28018;-70
2022/01/05 00:28:30;;;;;;;1.83;1.30;;;5.10;99.90;;;;;;476506;249;27982;-70
2022/01/05 00:30:31;;;;;;;1.10;1.10;;;5.10;99.90;;;;;;476498;249;27927;-69
2022/01/05 00:32:32;;;;;;;1.20;1.10;;;5.20;99.90;;;;;;476499;249;27428;-70
2022/01/05 00:34:34;;;;;;;1.50;1.40;;;5.20;99.90;;;;;;476516;249;27409;-70
2022/01/05 00:36:35;;;;;;;1.10;1.10;;;5.20;99.90;;;;;;476496;249;27544;-69
2022/01/05 00:38:36;;;;;;;2.00;1.27;;;5.20;99.90;;;;;;476525;249;27389;-70
2022/01/05 00:40:37;;;;;;;3.65;1.10;;;5.20;99.90;;;;;;476492;249;27435;-70
2022/01/05 00:42:39;;;;;;;1.27;1.27;;;5.20;99.90;;;;;;476496;249;27448;-70
2022/01/05 00:44:40;;;;;;;1.20;1.20;;;5.20;99.90;;;;;;476501;249;27412;-69
2022/01/05 00:46:41;;;;;;;1.27;1.20;;;5.20;99.90;;;;;;476489;249;28012;-69
2022/01/05 00:48:42;;;;;;;2.15;1.40;;;5.30;99.90;;;;;;476512;249;27944;-70
2022/01/05 00:50:44;;;;;;;2.22;1.40;;;5.30;99.90;;;;;;476513;249;27882;-70
2022/01/05 00:52:45;;;;;;;1.55;1.45;;;5.30;99.90;;;;;;476521;249;27437;-70
2022/01/05 00:54:46;;;;;;;1.87;1.30;;;5.30;99.90;;;;;;476501;249;27486;-69
2022/01/05 00:56:47;;;;;;;1.20;1.20;;;5.30;99.90;;;;;;476504;249;27429;-69
2022/01/05 00:58:49;;;;;;;1.23;1.20;;;5.30;99.90;;;;;;476485;249;27516;-69
2022/01/05 01:00:50;;;;;;;2.08;1.40;;;5.30;99.90;;;;;;476501;249;27574;-69
2022/01/05 01:02:51;;;;;;;1.33;1.33;;;5.30;99.90;;;;;;476508;249;27558;-70
2022/01/05 01:04:52;;;;;;;1.20;1.10;;;5.30;99.90;;;;;;476531;249;27417;-69
2022/01/05 01:06:54;;;;;;;1.80;1.20;;;5.30;99.90;;;;;;476495;249;28036;-69
2022/01/05 01:08:55;;;;;;;1.25;1.20;;;5.30;99.90;;;;;;476480;249;28003;-70
2022/01/05 01:10:56;;;;;;;1.30;1.30;;;5.30;99.90;;;;;;476475;249;29063;-70
2022/01/05 01:12:57;;;;;;;1.77;1.30;;;5.30;99.90;;;;;;476530;249;27414;-70
2022/01/05 01:14:59;;;;;;;1.75;1.40;;;5.30;99.90;;;;;;476521;249;27495;-69
2022/01/05 01:17:00;;;;;;;1.45;1.35;;;5.30;99.90;;;;;;476524;249;27511;-69
2022/01/05 01:19:01;;;;;;;1.58;1.48;;;5.30;99.90;;;;;;476519;249;27396;-70
2022/01/05 01:21:02;;;;;;;2.37;1.67;;;5.30;99.90;;;;;;476523;249;27435;-69
2022/01/05 01:23:04;;;;;;;2.08;1.65;;;5.40;99.90;;;;;;476521;249;27519;-69
2022/01/05 01:25:05;;;;;;;2.97;1.55;;;5.40;99.90;;;;;;476546;249;27437;-69
2022/01/05 01:27:06;;;;;;;2.58;1.90;;;5.30;99.90;;;;;;476291;249;27912;-69
2022/01/05 01:29:07;;;;;;;1.87;1.77;;;5.30;99.90;;;;;;476534;249;27971;-69
2022/01/05 01:31:09;;;;;;;1.77;1.67;;;5.30;99.90;;;;;;476516;249;27860;-69
2022/01/05 01:33:10;;;;;;;1.85;1.73;;;5.20;99.90;;;;;;476519;249;27468;-69
2022/01/05 01:35:11;;;;;;;2.33;2.10;;;5.20;99.90;;;;;;476506;249;27496;-69
2022/01/05 01:37:12;;;;;;;2.22;1.85;;;5.20;99.90;;;;;;476524;249;27396;-70
2022/01/05 01:39:14;;;;;;;1.85;1.55;;;5.20;99.90;;;;;;476511;249;27480;-70
2022/01/05 01:41:15;;;;;;;2.12;1.83;;;5.20;99.90;;;;;;476528;249;27456;-70
2022/01/05 01:43:16;;;;;;;5.43;1.70;;;5.20;99.90;;;;;;476508;249;27454;-69
2022/01/05 01:45:17;;;;;;;1.80;1.70;;;5.20;99.90;;;;;;476527;249;27397;-69
2022/01/05 01:47:19;;;;;;;2.95;1.73;;;5.20;99.90;;;;;;476521;249;27441;-70
2022/01/05 01:49:20;;;;;;;1.55;1.45;;;5.20;99.90;;;;;;476501;249;28606;-69
2022/01/05 01:51:21;;;;;;;1.55;1.45;;;5.20;99.90;;;;;;476523;249;27940;-70
2022/01/05 01:53:22;;;;;;;1.83;1.73;;;5.20;99.90;;;;;;476532;249;27433;-70
2022/01/05 01:55:24;;;;;;;2.05;1.67;;;5.20;99.90;;;;;;476537;249;27457;-70
2022/01/05 01:57:25;;;;;;;4.05;1.80;;;5.30;99.90;;;;;;476531;249;27448;-69
2022/01/05 01:59:26;;;;;;;2.00;1.50;;;5.30;99.90;;;;;;476493;249;27388;-69
2022/01/05 02:01:27;;;;;;;1.62;1.52;;;5.30;99.90;;;;;;476504;249;27429;-70
2022/01/05 02:03:29;;;;;;;1.58;1.48;;;5.30;99.90;;;;;;476519;249;27437;-69
2022/01/05 02:05:30;;;;;;;3.75;2.20;;;5.30;99.90;;;;;;476517;249;27503;-70
2022/01/05 02:07:31;;;;;;;2.03;1.92;;;5.30;99.90;;;;;;476517;249;27429;-69
2022/01/05 02:09:32;;;;;;;2.40;2.20;;;5.30;99.90;;;;;;476521;249;27861;-70
2022/01/05 02:11:34;;;;;;;2.72;2.53;;;5.30;99.90;;;;;;476503;249;27892;-70
2022/01/05 02:13:35;;;;;;;2.08;1.87;;;5.30;99.90;;;;;;476532;249;28039;-69
2022/01/05 02:15:36;;;;;;;1.83;1.70;;;5.30;99.90;;;;;;476499;249;27492;-69
2022/01/05 02:17:48;;;;;;;2.15;2.00;;;5.30;99.90;;;;;;476505;249;27441;-69
2022/01/05 02:19:45;;;;;;;1.90;1.80;;;5.30;99.90;;;;;;476326;249;27832;-69
2022/01/05 02:21:46;;;;;;;1.83;1.73;;;5.40;99.90;;;;;;476524;249;27396;-70
2022/01/05 02:23:47;;;;;;;2.20;2.10;;;5.40;99.90;;;;;;476486;249;27574;-69
2022/01/05 02:25:49;;;;;;;1.90;1.80;;;5.40;99.90;;;;;;476493;249;27436;-69
2022/01/05 02:27:50;;;;;;;2.35;2.15;;;5.40;99.90;;;;;;476519;249;27541;-69
2022/01/05 02:29:51;;;;;;;4.30;2.17;;;5.40;99.90;;;;;;476503;249;27484;-69
2022/01/05 02:31:52;;;;;;;2.67;1.98;;;5.40;99.90;;;;;;476527;249;27401;-69
2022/01/05 02:33:54;;;;;;;2.28;2.08;;;5.40;99.90;;;;;;476542;249;27476;-69
2022/01/05 02:35:55;;;;;;;2.65;2.22;;;5.40;99.90;;;;;;476511;249;28029;-70
2022/01/05 02:37:56;;;;;;;2.70;1.92;;;5.40;99.90;;;;;;476511;249;28003;-69
2022/01/05 02:39:57;;;;;;;4.55;1.95;;;5.40;99.90;;;;;;476522;249;27503;-70
2022/01/05 02:41:59;;;;;;;2.20;2.00;;;5.40;99.90;;;;;;476532;249;27465;-69
2022/01/05 02:44:00;;;;;;;2.37;1.85;;;5.40;99.90;;;;;;476515;249;27577;-70
2022/01/05 02:46:01;;;;;;;1.87;1.77;;;5.40;99.90;;;;;;476491;249;27496;-70
2022/01/05 02:48:02;;;;;;;1.90;1.80;;;5.40;99.90;;;;;;476532;249;27440;-70
2022/01/05 02:50:04;;;;;;;1.70;1.60;;;5.30;99.90;;;;;;476532;249;27844;-69
2022/01/05 02:52:05;;;;;;;2.75;1.90;;;5.30;99.90;;;;;;476523;249;27901;-70
2022/01/05 02:54:06;;;;;;;1.90;1.80;;;5.20;99.90;;;;;;476520;249;27919;-69
2022/01/05 02:56:08;;;;;;;1.90;1.80;;;5.20;99.90;;;;;;476518;249;27871;-69
2022/01/05 02:58:09;;;;;;;2.00;1.90;;;5.10;99.90;;;;;;476506;249;27439;-69
2022/01/05 03:00:10;;;;;;;1.70;1.60;;;4.80;99.90;;;;;;476521;249;27413;-69
2022/01/05 03:02:11;;;;;;;1.45;1.35;;;4.60;99.90;;;;;;476494;249;27475;-70
2022/01/05 03:04:13;;;;;;;1.50;1.40;;;4.00;99.90;;;;;;476532;249;27427;-70
2022/01/05 03:06:14;;;;;;;1.30;1.30;;;3.80;99.90;;;;;;476507;249;27409;-69
2022/01/05 03:08:15;;;;;;;1.67;1.58;;;3.60;99.90;;;;;;476531;249;27456;-70
2022/01/05 03:10:16;;;;;;;1.30;1.30;;;3.40;99.90;;;;;;476517;249;27507;-70
2022/01/05 03:12:20;;;;;;;1.23;1.23;;;;;;;;;;476508;249;27452;-69
2022/01/05 03:14:21;;;;;;;1.45;1.30;;;3.40;99.90;;;;;;476506;249;26312;-69
2022/01/05 03:16:22;;;;;;;1.20;1.20;;;3.30;99.90;;;;;;476493;249;27497;-69
2022/01/05 03:18:24;;;;;;;1.75;1.27;;;3.20;99.90;;;;;;476498;249;27433;-70
2022/01/05 03:20:26;;;;;;;1.45;1.35;;;3.20;99.90;;;;;;476533;249;27463;-69
2022/01/05 03:22:26;;;;;;;1.65;1.55;;;3.20;99.90;;;;;;476494;249;27393;-70
2022/01/05 03:24:27;;;;;;;1.25;1.25;;;3.20;99.90;;;;;;476515;249;28688;-69
2022/01/05 03:26:29;;;;;;;1.12;1.12;;;3.20;99.90;;;;;;476483;249;27933;-69
2022/01/05 03:28:30;;;;;;;1.23;1.20;;;3.20;99.90;;;;;;476493;249;27882;-70
2022/01/05 03:30:31;;;;;;;1.50;1.25;;;3.20;99.90;;;;;;476516;249;27900;-70
2022/01/05 03:32:44;;;;;;;1.10;1.10;;;3.20;99.90;;;;;;476504;249;27409;-70
2022/01/05 03:34:35;;;;;;;1.20;1.20;;;3.10;99.90;;;;;;476078;249;27439;-69
2022/01/05 03:36:35;;;;;;;1.20;1.20;;;3.10;99.90;;;;;;476441;249;27441;-69
2022/01/05 03:38:36;;;;;;;1.15;1.15;;;3.10;99.90;;;;;;476481;249;27500;-69
2022/01/05 03:40:37;;;;;;;1.55;1.40;;;3.20;99.90;;;;;;476501;249;27429;-69
2022/01/05 03:42:39;;;;;;;1.27;1.20;;;3.20;99.90;;;;;;476474;249;27508;-69
2022/01/05 03:44:40;;;;;;;1.20;1.20;;;3.20;99.90;;;;;;476508;249;27458;-69
2022/01/05 03:46:41;;;;;;;1.30;1.20;;;3.20;99.90;;;;;;476489;249;27405;-69
2022/01/05 03:48:42;;;;;;;1.23;1.23;;;3.10;99.90;;;;;;476509;249;27437;-69
2022/01/05 03:50:44;;;;;;;1.20;1.10;;;3.10;99.90;;;;;;476524;249;27442;-69
2022/01/05 03:52:45;;;;;;;1.10;1.10;;;3.10;99.90;;;;;;476487;249;27919;-69
2022/01/05 03:54:46;;;;;;;1.35;1.35;;;3.20;99.90;;;;;;476483;249;27915;-70
2022/01/05 03:56:47;;;;;;;1.20;1.20;;;3.10;99.90;;;;;;476504;249;27847;-69
2022/01/05 03:58:49;;;;;;;1.20;1.20;;;3.10;99.90;;;;;;476505;249;27923;-69
2022/01/05 04:00:50;;;;;;;1.05;1.05;;;3.10;99.90;;;;;;476513;249;27431;-69
2022/01/05 04:02:51;;;;;;;1.45;1.35;;;3.10;99.90;;;;;;476486;249;27405;-69
2022/01/05 04:04:52;;;;;;;1.12;1.12;;;3.10;99.90;;;;;;476492;249;27440;-69
2022/01/05 04:06:54;;;;;;;1.20;1.20;;;3.10;99.90;;;;;;476511;249;27457;-69
2022/01/05 04:08:55;;;;;;;1.40;1.30;;;3.10;99.90;;;;;;476514;249;27534;-69
2022/01/05 04:10:56;;;;;;;1.17;1.17;;;3.20;99.90;;;;;;476507;249;27481;-69
2022/01/05 04:12:57;;;;;;;1.10;1.10;;;3.20;99.90;;;;;;476497;249;27404;-70
2022/01/05 04:14:59;;;;;;;1.25;1.25;;;3.20;99.90;;;;;;476496;249;27783;-69
2022/01/05 04:17:00;;;;;;;1.00;1.00;;;3.30;99.90;;;;;;476486;249;27479;-69
2022/01/05 04:19:01;;;;;;;2.15;1.40;;;3.20;99.90;;;;;;476512;249;27551;-69
2022/01/05 04:21:02;;;;;;;1.27;1.27;;;3.30;99.90;;;;;;476504;249;28800;-69
2022/01/05 04:23:04;;;;;;;1.08;1.08;;;3.10;99.90;;;;;;476484;249;27857;-69
2022/01/05 04:25:05;;;;;;;1.10;1.10;;;3.00;99.90;;;;;;476490;249;29044;-69
2022/01/05 04:27:06;;;;;;;1.08;1.08;;;2.90;99.90;;;;;;476484;249;27864;-69
2022/01/05 04:29:07;;;;;;;1.30;1.20;;;3.00;99.90;;;;;;476519;249;27436;-69
2022/01/05 04:31:09;;;;;;;1.00;1.00;;;2.90;99.90;;;;;;476515;249;27486;-70
2022/01/05 04:33:10;;;;;;;1.20;1.20;;;2.80;99.90;;;;;;476516;249;27421;-69
2022/01/05 04:35:13;;;;;;;1.20;1.20;;;2.80;99.90;;;;;;476500;249;27460;-69
2022/01/05 04:37:12;;;;;;;1.05;1.05;;;2.80;99.90;;;;;;476425;249;27400;-69
2022/01/05 04:39:14;;;;;;;1.05;1.05;;;2.80;99.90;;;;;;476488;249;27444;-69
2022/01/05 04:41:15;;;;;;;1.00;1.00;;;2.90;99.90;;;;;;476502;249;27451;-69
2022/01/05 04:43:16;;;;;;;1.00;1.00;;;2.90;99.90;;;;;;476467;249;27435;-69
2022/01/05 04:45:18;;;;;;;1.15;1.15;;;2.80;99.90;;;;;;476499;249;27524;-70
2022/01/05 04:47:19;;;;;;;1.20;1.20;;;2.90;99.90;;;;;;476508;249;27393;-69
2022/01/05 04:49:20;;;;;;;1.23;1.10;;;2.90;99.90;;;;;;476504;249;27897;-69
2022/01/05 04:51:21;;;;;;;1.62;1.50;;;2.90;99.90;;;;;;476514;249;27869;-70
2022/01/05 04:53:22;;;;;;;1.77;1.30;;;2.80;99.90;;;;;;476516;249;29082;-69
2022/01/05 04:55:24;;;;;;;1.58;1.20;;;2.80;99.90;;;;;;476521;249;27919;-69
2022/01/05 04:57:25;;;;;;;1.62;1.52;;;2.70;99.90;;;;;;476523;249;27503;-69
2022/01/05 04:59:26;;;;;;;1.20;1.20;;;2.70;99.90;;;;;;476512;249;27511;-70
2022/01/05 05:01:27;;;;;;;3.30;1.70;;;2.70;99.90;;;;;;476515;249;27397;-70
2022/01/05 05:03:29;;;;;;;4.20;1.50;;;2.60;99.90;;;;;;476503;249;27432;-70
2022/01/05 05:05:30;;;;;;;1.67;1.58;;;2.60;99.90;;;;;;476516;249;27544;-69
2022/01/05 05:07:31;;;;;;;1.60;1.50;;;2.50;99.90;;;;;;476510;249;27485;-70
2022/01/05 05:09:32;;;;;;;1.52;1.42;;;2.50;99.90;;;;;;476508;249;27523;-69
2022/01/05 05:11:34;;;;;;;3.30;1.70;;;2.30;99.90;;;;;;476511;249;27417;-69
2022/01/05 05:13:35;;;;;;;1.87;1.77;;;2.40;99.90;;;;;;476516;249;27460;-69
2022/01/05 05:15:36;;;;;;;5.22;2.60;;;2.20;99.90;;;;;;476506;249;27844;-69
2022/01/05 05:17:37;;;;;;;2.58;2.37;;;2.20;99.90;;;;;;476508;249;27847;-69
2022/01/05 05:19:39;;;;;;;2.80;2.10;;;2.20;99.90;;;;;;476499;249;27913;-69
2022/01/05 05:21:40;;;;;;;2.62;1.90;;;2.20;99.90;;;;;;476506;249;27843;-70
2022/01/05 05:23:41;;;;;;;1.80;1.70;;;2.20;99.90;;;;;;476518;249;28007;-69
2022/01/05 05:25:42;;;;;;;2.10;1.90;;;2.10;99.90;;;;;;476507;249;27433;-69
2022/01/05 05:27:44;;;;;;;1.77;1.67;;;2.10;99.90;;;;;;476498;249;27393;-70
2022/01/05 05:29:45;;;;;;;3.50;1.98;;;2.20;99.90;;;;;;476516;249;27448;-69
2022/01/05 05:31:46;;;;;;;3.65;1.70;;;2.10;99.90;;;;;;476509;249;27396;-69
2022/01/05 05:33:47;;;;;;;2.33;1.77;;;2.20;99.90;;;;;;476525;249;27520;-69
2022/01/05 05:35:49;;;;;;;2.10;1.90;;;2.20;99.90;;;;;;476532;249;27547;-71
2022/01/05 05:37:50;;;;;;;2.47;2.22;;;2.20;99.90;;;;;;476514;246;27416;-69
2022/01/05 05:39:51;;;;;;;2.83;1.95;;;2.10;99.90;;;;;;476533;249;27532;-69
2022/01/05 05:41:52;;;;;;;2.83;1.83;;;2.10;99.90;;;;;;476501;249;27477;-69
2022/01/05 05:43:54;;;;;;;5.87;2.50;;;2.20;99.90;;;;;;476497;249;27427;-69
2022/01/05 05:45:55;;;;;;;4.62;2.20;;;2.10;99.90;;;;;;476517;249;28375;-69
2022/01/05 05:47:56;;;;;;;2.40;2.28;;;2.00;99.90;;;;;;476517;249;27853;-69
2022/01/05 05:49:57;;;;;;;2.45;2.22;;;2.00;99.90;;;;;;476515;249;27910;-69
2022/01/05 05:51:59;;;;;;;2.42;2.33;;;1.90;99.90;;;;;;476468;249;29012;-69
2022/01/05 05:54:00;;;;;;;2.53;2.30;;;1.80;99.90;;;;;;476460;249;27440;-69
2022/01/05 05:56:01;;;;;;;4.85;2.37;;;1.80;99.90;;;;;;476497;249;27457;-70
2022/01/05 05:58:02;;;;;;;7.20;2.65;;;1.70;99.90;;;;;;476490;249;27473;-69
2022/01/05 06:00:04;;;;;;;6.32;2.72;;;1.70;99.90;;;;;;476508;249;27437;-70
2022/01/05 06:02:05;;;;;;;5.93;2.67;;;1.60;99.90;;;;;;476490;249;27772;-70
2022/01/05 06:04:06;;;;;;;4.12;2.58;;;1.60;99.90;;;;;;476515;249;27507;-69
2022/01/05 06:06:07;;;;;;;4.10;2.47;;;1.50;99.90;;;;;;476301;249;27444;-69
2022/01/05 06:08:09;;;;;;;2.72;2.50;;;1.50;99.90;;;;;;476492;249;27535;-69
2022/01/05 06:10:10;;;;;;;4.28;2.45;;;1.60;99.90;;;;;;476525;249;27436;-69
2022/01/05 06:12:11;;;;;;;2.50;2.30;;;1.60;99.90;;;;;;476513;249;27460;-69
2022/01/05 06:14:12;;;;;;;2.65;2.45;;;1.70;99.90;;;;;;476510;249;27923;-70
2022/01/05 06:16:14;;;;;;;3.47;3.03;;;1.70;99.90;;;;;;476557;249;27999;-69
2022/01/05 06:18:15;;;;;;;2.45;2.30;;;1.80;99.90;;;;;;476541;249;27891;-70
2022/01/05 06:20:17;;;;;;;2.47;2.30;;;1.80;99.90;;;;;;476526;249;28032;-70
2022/01/05 06:22:17;;;;;;;2.83;2.50;;;1.80;99.90;;;;;;476488;249;27477;-70
2022/01/05 06:24:19;;;;;;;6.75;2.85;;;1.70;99.90;;;;;;476509;249;27423;-69
2022/01/05 06:26:21;;;;;;;4.12;2.47;;;1.60;99.90;;;;;;476522;249;27602;-70
2022/01/05 06:28:21;;;;;;;8.25;2.50;;;1.60;99.90;;;;;;476461;249;27401;-70
2022/01/05 06:30:22;;;;;;;4.90;3.05;;;1.50;99.90;;;;;;476524;249;27420;-69
2022/01/05 06:32:24;;;;;;;8.45;3.05;;;1.40;99.90;;;;;;476541;249;27421;-70
2022/01/05 06:34:25;;;;;;;2.72;2.45;;;1.40;99.90;;;;;;476565;249;27536;-70
2022/01/05 06:36:26;;;;;;;6.62;3.28;;;1.30;99.90;;;;;;476520;249;27551;-69
2022/01/05 06:38:27;;;;;;;5.72;2.90;;;1.20;99.90;;;;;;476510;249;27416;-70
2022/01/05 06:40:29;;;;;;;6.90;3.25;;;1.30;99.90;;;;;;476519;249;27452;-70
2022/01/05 06:42:30;;;;;;;3.87;3.00;;;1.30;99.90;;;;;;476497;249;27862;-70
2022/01/05 06:44:31;;;;;;;5.82;3.08;;;1.30;99.90;;;;;;476495;249;27992;-70
2022/01/05 06:46:32;;;;;;;2.78;2.55;;;1.40;99.90;;;;;;476507;249;27978;-70
2022/01/05 06:48:34;;;;;;;5.55;3.00;;;1.40;99.90;;;;;;476490;249;27939;-70
2022/01/05 06:50:35;;;;;;;2.97;2.75;;;1.40;99.90;;;;;;476519;249;27799;-69
2022/01/05 06:52:36;;;;;;;3.85;2.47;;;1.40;99.90;;;;;;476503;249;27520;-70
2022/01/05 06:54:37;;;;;;;3.85;3.05;;;1.40;99.90;;;;;;476500;249;27452;-70
2022/01/05 06:56:39;;;;;;;4.47;3.00;;;1.40;99.90;;;;;;476504;249;27504;-70
2022/01/05 06:58:40;;;;;;;5.78;2.87;;;1.30;99.90;;;;;;476508;249;27497;-70
2022/01/05 07:00:41;;;;;;;4.28;2.97;;;1.30;99.90;;;;;;476519;249;27439;-70
2022/01/05 07:02:42;;;;;;;3.30;2.75;;;1.30;99.90;;;;;;476510;249;27405;-70
2022/01/05 07:04:44;;;;;;;2.65;2.45;;;1.30;99.90;;;;;;476499;249;27431;-70
2022/01/05 07:06:45;;;;;;;3.58;2.30;;;1.30;99.90;;;;;;476497;249;27567;-69
2022/01/05 07:08:46;;;;;;;3.40;2.78;;;1.40;99.90;;;;;;476499;249;27516;-70
2022/01/05 07:10:47;;;;;;;3.95;2.55;;;1.40;99.90;;;;;;476514;249;27901;-70
2022/01/05 07:12:49;;;;;;;4.40;2.58;;;1.40;99.90;;;;;;476501;249;27913;-70
2022/01/05 07:14:50;;;;;;;6.80;2.50;;;1.30;99.90;;;;;;476494;249;28030;-70
2022/01/05 07:16:51;;;;;;;7.22;2.80;;;1.40;99.90;;;;;;476511;249;28039;-70
2022/01/05 07:18:52;;;;;;;4.00;2.40;;;1.30;99.90;;;;;;476487;249;27487;-70
2022/01/05 07:20:54;;;;;;;4.53;2.47;;;1.30;99.90;;;;;;476499;249;27496;-70
2022/01/05 07:22:55;;;;;;;3.83;2.60;;;1.30;99.90;;;;;;476519;249;27472;-70
2022/01/05 07:24:56;;;;;;;3.80;2.85;;;1.20;99.90;;;;;;476508;249;27439;-70
2022/01/05 07:26:57;;;;;;;4.55;2.67;;;1.20;99.90;;;;;;476505;249;27440;-70
2022/01/05 07:28:59;;;;;;;4.75;2.92;;;1.20;99.90;;;;;;476495;249;27488;-69
2022/01/05 07:31:00;;;;;;;4.53;2.83;;;1.10;99.90;;;;;;476512;249;27457;-70
2022/01/05 07:33:01;;;;;;;6.35;2.85;;;1.10;99.90;;;;;;476510;249;27404;-70
2022/01/05 07:35:02;;;;;;;4.47;2.58;;;1.10;99.90;;;;;;476511;249;27404;-70
2022/01/05 07:37:04;;;;;;;4.20;2.50;;;1.00;99.90;;;;;;476532;249;27440;-70
2022/01/05 07:39:05;;;;;;;7.35;2.80;;;1.10;99.90;;;;;;476449;249;27857;-70
2022/01/05 07:41:06;;;;;;;4.43;2.90;;;1.10;99.90;;;;;;476374;249;27920;-70
2022/01/05 07:43:07;;;;;;;4.20;2.35;;;1.20;99.90;;;;;;476330;249;27994;-69
2022/01/05 07:45:09;;;;;;;6.78;2.78;;;1.30;99.90;;;;;;476362;249;27959;-70
2022/01/05 07:47:10;;;;;;;5.03;2.65;;;1.30;99.90;;;;;;476425;249;27557;-70
2022/01/05 07:49:11;;;;;;;7.78;3.05;;;1.20;99.90;;;;;;476487;249;27389;-70
2022/01/05 07:51:12;;;;;;;7.00;4.05;;;1.20;99.90;;;;;;476493;249;27437;-69
2022/01/05 07:53:14;;;;;;;4.40;2.95;;;1.10;99.90;;;;;;476485;249;27501;-70
2022/01/05 07:55:15;;;;;;;8.20;2.35;;;1.10;99.90;;;;;;476506;249;27484;-70
2022/01/05 07:57:16;;;;;;;3.30;2.72;;;1.20;99.90;;;;;;476504;249;27551;-70
2022/01/05 07:59:17;;;;;;;3.25;2.83;;;1.20;99.90;;;;;;476498;249;27498;-70
2022/01/05 08:01:19;;;;;;;4.40;3.28;;;1.30;99.90;;;;;;476479;249;27528;-69
2022/01/05 08:03:20;;;;;;;3.47;2.90;;;1.30;99.90;;;;;;476502;249;27862;-70
2022/01/05 08:05:21;;;;;;;5.75;2.70;;;1.40;99.90;;;;;;476498;249;27409;-70
2022/01/05 08:07:22;;;;;;;9.75;2.75;;;1.30;99.90;;;;;;476494;249;27964;-69
2022/01/05 08:09:24;;;;;;;5.25;2.60;;;1.30;99.90;;;;;;476517;249;27838;-69
2022/01/05 08:11:25;;;;;;;4.85;2.90;;;1.20;99.90;;;;;;476485;249;27919;-70
2022/01/05 08:13:26;;;;;;;7.15;3.33;;;1.10;99.90;;;;;;476515;249;28093;-70
2022/01/05 08:15:27;;;;;;;3.87;2.58;;;1.10;99.90;;;;;;476491;249;27400;-70
2022/01/05 08:17:29;;;;;;;2.92;2.53;;;1.00;99.90;;;;;;476476;249;27444;-69
2022/01/05 08:19:30;;;;;;;5.05;2.70;;;1.00;99.90;;;;;;476507;249;27400;-70
2022/01/05 08:21:31;;;;;;;6.85;3.20;;;1.00;99.90;;;;;;476481;249;27436;-69
2022/01/05 08:23:32;;;;;;;3.85;2.40;;;1.00;99.90;;;;;;476532;249;27425;-69
2022/01/05 08:25:34;;;;;;;5.85;2.85;;;1.00;99.90;;;;;;476513;249;27404;-70
2022/01/05 08:27:35;;;;;;;6.75;3.20;;;1.00;99.90;;;;;;476529;249;27452;-70
2022/01/05 08:29:36;;;;;;;9.38;4.10;;;0.90;99.90;;;;;;476531;249;27531;-69
2022/01/05 08:31:37;;;;;;;7.25;3.92;;;1.00;99.90;;;;;;476499;249;27480;-69
2022/01/05 08:33:39;;;;;;;3.90;3.28;;;0.90;99.90;;;;;;476506;249;27898;-69
2022/01/05 08:35:40;;;;;;;7.40;3.95;;;1.00;99.90;;;;;;476504;249;27873;-69
2022/01/05 08:37:46;;;;;;;4.40;2.85;;;1.00;99.90;;;;;;476519;249;27940;-69
2022/01/05 08:39:43;;;;;;;7.07;3.03;;;1.10;99.90;;;;;;476365;249;27840;-70
2022/01/05 08:41:44;;;;;;;3.90;3.05;;;1.20;99.90;;;;;;476514;249;27953;-69
2022/01/05 08:43:45;;;;;;;3.35;3.00;;;1.20;99.90;;;;;;476526;249;27448;-70
2022/01/05 08:45:46;;;;;;;5.40;3.78;;;1.10;99.90;;;;;;476513;249;27515;-69
2022/01/05 08:47:47;;;;;;;9.27;2.90;;;1.10;99.90;;;;;;476495;249;27504;-70
2022/01/05 08:49:49;;;;;;;6.75;4.18;;;1.10;99.90;;;;;;476523;249;27483;-69
2022/01/05 08:51:50;;;;;;;6.10;3.00;;;1.20;99.90;;;;;;476514;249;27405;-69
2022/01/05 08:53:51;;;;;;;3.90;2.83;;;1.20;99.90;;;;;;476514;249;27448;-69
2022/01/05 08:55:53;;;;;;;9.75;2.70;;;1.30;99.90;;;;;;476513;249;27405;-69
2022/01/05 08:57:54;;;;;;;6.22;3.37;;;1.30;99.90;;;;;;476528;249;27519;-70
2022/01/05 08:59:55;;;;;;;6.10;3.35;;;1.40;99.90;;;;;;476530;249;27459;-70
2022/01/05 09:01:56;;;;;;;4.78;4.20;;;1.40;99.90;;;;;;476498;249;27534;-70
2022/01/05 09:03:57;;;;;;;4.72;4.00;;;1.40;99.90;;;;;;476525;249;27948;-70
2022/01/05 09:06:00;;;;;;;7.40;4.20;;;1.40;99.90;;;;;;476535;249;27936;-69
2022/01/05 09:08:00;;;;;;;7.87;3.95;;;1.40;99.90;;;;;;476490;249;27855;-69
2022/01/05 09:10:03;;;;;;;6.45;3.60;;;1.50;99.90;;;;;;476522;249;28552;-70
2022/01/05 09:12:02;;;;;;;6.25;3.20;;;1.60;99.90;;;;;;476429;249;27518;-70
2022/01/05 09:14:04;;;;;;;6.62;3.03;;;1.60;99.90;;;;;;476523;249;27437;-70
2022/01/05 09:16:05;;;;;;;6.78;3.28;;;1.70;99.90;;;;;;476522;249;27401;-69
2022/01/05 09:18:06;;;;;;;7.87;3.22;;;1.80;99.90;;;;;;476534;249;27455;-71
2022/01/05 09:20:07;;;;;;;6.05;3.42;;;1.70;99.90;;;;;;476517;249;27428;-70
2022/01/05 09:22:09;;;;;;;13.75;3.58;;;1.60;99.90;;;;;;476521;249;27405;-69
2022/01/05 09:24:10;;;;;;;9.15;3.00;;;1.70;99.90;;;;;;476516;249;27448;-70
2022/01/05 09:26:11;;;;;;;9.73;3.40;;;1.70;99.90;;;;;;476512;249;27476;-70
2022/01/05 09:28:12;;;;;;;9.45;3.55;;;1.90;99.90;;;;;;476533;249;27451;-69
2022/01/05 09:30:14;;;;;;;8.52;3.55;;;1.80;99.90;;;;;;476543;249;27457;-69
2022/01/05 09:32:15;;;;;;;11.50;4.10;;;1.70;99.90;;;;;;476525;249;27864;-69
2022/01/05 09:34:17;;;;;;;6.20;3.58;;;1.70;99.90;;;;;;476528;249;27923;-70
2022/01/05 09:36:29;;;;;;;5.80;3.30;;;1.80;99.90;;;;;;476519;249;27949;-70
2022/01/05 09:38:34;;;;;;;5.15;3.90;;;1.90;99.90;;;;;;476105;249;27479;-70
2022/01/05 09:42:42;;;;;;;12.70;4.85;;;1.90;99.90;;;;;;476497;249;27444;-69
2022/01/05 09:44:43;;;;;;;10.55;4.65;;;1.90;99.90;;;;;;476517;249;27483;-70
2022/01/05 09:46:45;;;;;;;15.77;4.70;;;1.90;99.90;;;;;;476500;249;27441;-70
2022/01/05 09:48:46;;;;;;;5.85;3.53;;;2.00;99.90;;;;;;476505;249;27440;-70
2022/01/05 09:50:47;;;;;;;9.15;4.43;;;2.00;99.90;;;;;;476474;249;27904;-70
2022/01/05 09:52:48;;;;;;;13.00;3.95;;;1.90;99.90;;;;;;476503;249;27951;-70
2022/01/05 09:54:50;;;;;;;8.20;3.65;;;1.90;99.90;;;;;;476507;249;27872;-70
2022/01/05 09:56:51;;;;;;;8.77;3.25;;;1.90;99.90;;;;;;476512;249;28025;-70
2022/01/05 09:58:52;;;;;;;11.88;3.85;;;1.90;99.90;;;;;;476500;249;27519;-70
2022/01/05 10:00:53;;;;;;;7.53;3.90;;;1.90;99.90;;;;;;476494;249;27473;-69
2022/01/05 10:02:55;;;;;;;4.03;3.20;;;2.00;99.90;;;;;;476511;242;27441;-70
2022/01/05 10:04:56;;;;;;;7.60;3.92;;;2.00;99.90;;;;;;476498;249;27435;-70
2022/01/05 10:06:57;;;;;;;15.35;4.45;;;2.10;99.90;;;;;;476506;249;27440;-70
2022/01/05 10:08:58;;;;;;;8.15;4.25;;;2.00;99.90;;;;;;476504;249;27409;-70
2022/01/05 10:11:00;;;;;;;4.93;3.65;;;2.00;99.90;;;;;;476524;249;27487;-70
2022/01/05 10:13:01;;;;;;;6.18;3.75;;;2.00;99.90;;;;;;476501;249;27432;-70
2022/01/05 10:15:02;;;;;;;6.22;3.58;;;2.00;99.90;;;;;;476506;249;27507;-70
2022/01/05 10:17:03;;;;;;;10.07;3.60;;;1.90;99.90;;;;;;476488;249;28020;-70
2022/01/05 10:19:06;;;;;;;4.68;3.35;;;1.90;99.90;;;;;;476513;249;28129;-70
2022/01/05 10:21:06;;;;;;;9.98;3.67;;;1.90;99.90;;;;;;476487;249;27939;-70
2022/01/05 10:23:08;;;;;;;4.35;2.90;;;1.90;99.90;;;;;;476510;249;28014;-70
2022/01/05 10:25:08;;;;;;;11.32;3.78;;;1.80;99.90;;;;;;476483;249;27408;-70
2022/01/05 10:27:10;;;;;;;7.90;3.47;;;1.80;99.90;;;;;;476503;249;27500;-70
2022/01/05 10:29:11;;;;;;;7.07;3.33;;;1.90;99.90;;;;;;476511;249;27522;-70
2022/01/05 10:31:12;;;;;;;8.15;3.20;;;1.90;99.90;;;;;;476499;249;27443;-70
2022/01/05 10:33:13;;;;;;;6.43;2.90;;;2.00;99.90;;;;;;476498;249;27436;-70
2022/01/05 10:35:15;;;;;;;5.00;2.67;;;1.80;99.90;;;;;;476504;249;27423;-70
2022/01/05 10:37:16;;;;;;;8.38;3.05;;;1.70;99.90;;;;;;476508;249;27440;-70
2022/01/05 10:39:20;;;;;;;4.93;2.87;;;;;;;;;;476513;249;27437;-70
2022/01/05 10:41:21;;;;;;;10.00;3.70;;;1.60;99.90;;;;;;476517;249;26265;-70